createdAt,value
2019-03-29T00:00:08.684Z,1027.36
2019-03-29T00:01:08.710Z,1027.34
2019-03-29T00:02:08.732Z,1027.32
2019-03-29T00:03:09.162Z,1027.29
2019-03-29T00:04:08.788Z,1027.29
2019-03-29T00:05:08.813Z,1027.29
2019-03-29T00:06:08.836Z,1027.25
2019-03-29T00:07:08.864Z,1027.31
2019-03-29T00:08:09.344Z,1027.25
2019-03-29T00:09:08.916Z,1027.30
2019-03-29T00:10:08.945Z,1027.28
2019-03-29T00:11:08.972Z,1027.25
2019-03-29T00:12:09.000Z,1027.25
2019-03-29T00:13:09.022Z,1027.25
2019-03-29T00:14:09.042Z,1027.25
2019-03-29T00:15:09.069Z,1027.28
2019-03-29T00:16:09.100Z,1027.20
2019-03-29T00:17:09.119Z,1027.25
2019-03-29T00:18:10.017Z,1027.27
2019-03-29T00:19:09.174Z,1027.26
2019-03-29T00:20:09.197Z,1027.24
2019-03-29T00:21:09.225Z,1027.22
2019-03-29T00:22:09.253Z,1027.24
2019-03-29T00:23:09.274Z,1027.24
2019-03-29T00:24:09.302Z,1027.24
2019-03-29T00:25:09.325Z,1027.23
2019-03-29T00:26:09.351Z,1027.20
2019-03-29T00:27:09.380Z,1027.23
2019-03-29T00:28:09.403Z,1027.26
2019-03-29T00:29:09.428Z,1027.23
2019-03-29T00:30:09.456Z,1027.21
2019-03-29T00:31:09.480Z,1027.19
2019-03-29T00:32:09.505Z,1027.20
2019-03-29T00:33:09.534Z,1027.14
2019-03-29T00:34:09.563Z,1027.15
2019-03-29T00:35:09.584Z,1027.15
2019-03-29T00:36:09.616Z,1027.11
2019-03-29T00:37:09.636Z,1027.14
2019-03-29T00:38:09.658Z,1027.05
2019-03-29T00:39:09.683Z,1027.07
2019-03-29T00:40:09.714Z,1027.02
2019-03-29T00:41:09.738Z,1027.02
2019-03-29T00:42:09.769Z,1027.00
2019-03-29T00:43:09.789Z,1026.99
2019-03-29T00:44:09.815Z,1026.92
2019-03-29T00:45:09.837Z,1026.94
2019-03-29T00:46:09.863Z,1026.91
2019-03-29T00:47:09.891Z,1026.90
2019-03-29T00:48:09.918Z,1026.91
2019-03-29T00:49:09.944Z,1026.88
2019-03-29T00:50:09.971Z,1026.89
2019-03-29T00:51:10.009Z,1026.90
2019-03-29T00:52:10.016Z,1026.88
2019-03-29T00:53:10.043Z,1026.88
2019-03-29T00:54:10.076Z,1026.83
2019-03-29T00:55:10.096Z,1026.82
2019-03-29T00:56:10.124Z,1026.76
2019-03-29T00:57:10.149Z,1026.86
2019-03-29T00:58:10.173Z,1026.79
2019-03-29T00:59:10.197Z,1026.86
2019-03-29T01:00:10.226Z,1026.88
2019-03-29T01:01:10.253Z,1026.81
2019-03-29T01:02:10.280Z,1026.80
2019-03-29T01:03:11.038Z,1026.80
2019-03-29T01:04:10.344Z,1026.80
2019-03-29T01:05:10.349Z,1026.77
2019-03-29T01:06:10.375Z,1026.72
2019-03-29T01:07:10.401Z,1026.69
2019-03-29T01:08:10.832Z,1026.67
2019-03-29T01:09:10.456Z,1026.65
2019-03-29T01:10:10.479Z,1026.62
2019-03-29T01:11:10.506Z,1026.64
2019-03-29T01:12:10.531Z,1026.63
2019-03-29T01:13:10.556Z,1026.63
2019-03-29T01:14:10.581Z,1026.62
2019-03-29T01:15:10.618Z,1026.61
2019-03-29T01:16:10.639Z,1026.62
2019-03-29T01:17:10.659Z,1026.60
2019-03-29T01:18:11.238Z,1026.59
2019-03-29T01:19:10.706Z,1026.59
2019-03-29T01:20:10.735Z,1026.57
2019-03-29T01:21:10.756Z,1026.56
2019-03-29T01:22:10.784Z,1026.54
2019-03-29T01:23:10.810Z,1026.58
2019-03-29T01:24:10.839Z,1026.56
2019-03-29T01:25:10.859Z,1026.56
2019-03-29T01:26:10.884Z,1026.54
2019-03-29T01:27:10.915Z,1026.57
2019-03-29T01:28:11.880Z,1026.57
2019-03-29T01:29:10.961Z,1026.51
2019-03-29T01:30:10.984Z,1026.51
2019-03-29T01:31:11.019Z,1026.51
2019-03-29T01:32:11.036Z,1026.50
2019-03-29T01:33:11.061Z,1026.49
2019-03-29T01:34:11.086Z,1026.48
2019-03-29T01:35:11.116Z,1026.42
2019-03-29T01:36:11.140Z,1026.46
2019-03-29T01:37:11.165Z,1026.43
2019-03-29T01:38:21.588Z,1026.44
2019-03-29T01:39:11.216Z,1026.38
2019-03-29T01:40:11.239Z,1026.46
2019-03-29T01:41:11.267Z,1026.43
2019-03-29T01:42:11.292Z,1026.39
2019-03-29T01:43:11.321Z,1026.42
2019-03-29T01:44:11.352Z,1026.40
2019-03-29T01:45:11.365Z,1026.44
2019-03-29T01:46:12.029Z,1026.40
2019-03-29T01:47:11.418Z,1026.39
2019-03-29T01:48:11.441Z,1026.40
2019-03-29T01:49:11.469Z,1026.38
2019-03-29T01:50:11.496Z,1026.41
2019-03-29T01:51:11.519Z,1026.38
2019-03-29T01:52:11.551Z,1026.41
2019-03-29T01:53:12.051Z,1026.36
2019-03-29T01:54:11.595Z,1026.32
2019-03-29T01:55:11.621Z,1026.32
2019-03-29T01:56:11.644Z,1026.34
2019-03-29T01:57:11.671Z,1026.31
2019-03-29T01:58:11.696Z,1026.26
2019-03-29T01:59:11.718Z,1026.22
2019-03-29T02:00:11.751Z,1026.21
2019-03-29T02:01:11.773Z,1026.22
2019-03-29T02:02:11.794Z,1026.22
2019-03-29T02:03:13.002Z,1026.25
2019-03-29T02:04:11.850Z,1026.23
2019-03-29T02:05:11.874Z,1026.24
2019-03-29T02:06:11.894Z,1026.24
2019-03-29T02:07:12.069Z,1026.23
2019-03-29T02:08:11.949Z,1026.20
2019-03-29T02:09:11.974Z,1026.24
2019-03-29T02:10:12.000Z,1026.24
2019-03-29T02:11:12.024Z,1026.17
2019-03-29T02:12:12.047Z,1026.17
2019-03-29T02:13:12.075Z,1026.20
2019-03-29T02:14:12.106Z,1026.16
2019-03-29T02:15:12.220Z,1026.06
2019-03-29T02:16:12.157Z,1026.06
2019-03-29T02:17:12.177Z,1026.07
2019-03-29T02:18:12.290Z,1026.07
2019-03-29T02:19:12.232Z,1026.08
2019-03-29T02:20:12.254Z,1026.07
2019-03-29T02:21:12.279Z,1026.09
2019-03-29T02:22:12.300Z,1026.05
2019-03-29T02:23:12.332Z,1026.07
2019-03-29T02:24:12.348Z,1026.08
2019-03-29T02:25:12.377Z,1026.06
2019-03-29T02:26:12.406Z,1026.05
2019-03-29T02:27:12.424Z,1026.02
2019-03-29T02:28:12.452Z,1026.05
2019-03-29T02:29:12.475Z,1026.08
2019-03-29T02:30:12.509Z,1026.10
2019-03-29T02:31:12.538Z,1026.03
2019-03-29T02:32:12.551Z,1026.00
2019-03-29T02:33:12.599Z,1026.00
2019-03-29T02:34:12.601Z,1026.01
2019-03-29T02:35:12.648Z,1026.04
2019-03-29T02:36:12.654Z,1026.00
2019-03-29T02:37:12.676Z,1025.99
2019-03-29T02:38:12.701Z,1026.03
2019-03-29T02:39:12.726Z,1026.04
2019-03-29T02:40:12.757Z,1026.03
2019-03-29T02:41:12.778Z,1026.06
2019-03-29T02:42:14.703Z,1025.99
2019-03-29T02:43:12.828Z,1026.02
2019-03-29T02:44:12.850Z,1025.98
2019-03-29T02:45:12.882Z,1025.94
2019-03-29T02:46:12.903Z,1026.01
2019-03-29T02:47:12.926Z,1025.98
2019-03-29T02:48:12.964Z,1025.95
2019-03-29T02:49:13.289Z,1025.96
2019-03-29T02:50:13.002Z,1025.99
2019-03-29T02:51:13.034Z,1025.91
2019-03-29T02:52:13.056Z,1025.94
2019-03-29T02:53:13.083Z,1025.93
2019-03-29T02:54:13.106Z,1025.94
2019-03-29T02:55:13.131Z,1025.92
2019-03-29T02:56:13.153Z,1025.89
2019-03-29T02:57:13.189Z,1025.85
2019-03-29T02:58:13.205Z,1025.87
2019-03-29T02:59:13.234Z,1025.89
2019-03-29T03:00:13.249Z,1025.90
2019-03-29T03:01:13.273Z,1025.92
2019-03-29T03:02:13.301Z,1025.95
2019-03-29T03:03:13.331Z,1025.93
2019-03-29T03:04:13.348Z,1025.93
2019-03-29T03:05:13.376Z,1025.93
2019-03-29T03:06:13.403Z,1025.92
2019-03-29T03:07:13.425Z,1025.91
2019-03-29T03:08:13.459Z,1025.89
2019-03-29T03:09:14.728Z,1025.88
2019-03-29T03:10:13.503Z,1025.92
2019-03-29T03:11:13.521Z,1025.90
2019-03-29T03:12:13.547Z,1025.90
2019-03-29T03:13:13.581Z,1025.90
2019-03-29T03:14:13.605Z,1025.92
2019-03-29T03:15:13.629Z,1025.88
2019-03-29T03:16:13.645Z,1025.91
2019-03-29T03:17:13.670Z,1025.87
2019-03-29T03:18:13.703Z,1025.91
2019-03-29T03:19:13.722Z,1025.89
2019-03-29T03:20:15.471Z,1025.90
2019-03-29T03:21:13.773Z,1025.91
2019-03-29T03:22:13.796Z,1025.92
2019-03-29T03:23:13.823Z,1025.91
2019-03-29T03:24:13.863Z,1025.90
2019-03-29T03:25:13.876Z,1025.94
2019-03-29T03:26:13.892Z,1025.94
2019-03-29T03:27:13.921Z,1025.89
2019-03-29T03:28:13.944Z,1025.91
2019-03-29T03:29:13.970Z,1025.86
2019-03-29T03:30:14.036Z,1025.91
2019-03-29T03:31:14.029Z,1025.87
2019-03-29T03:32:14.045Z,1025.96
2019-03-29T03:33:14.069Z,1025.95
2019-03-29T03:34:14.092Z,1025.97
2019-03-29T03:35:14.120Z,1025.93
2019-03-29T03:36:14.143Z,1025.96
2019-03-29T03:37:14.165Z,1025.94
2019-03-29T03:38:14.194Z,1025.96
2019-03-29T03:39:30.715Z,1025.98
2019-03-29T03:40:14.267Z,1025.96
2019-03-29T03:41:14.274Z,1025.99
2019-03-29T03:42:14.291Z,1026.02
2019-03-29T03:43:14.373Z,1025.96
2019-03-29T03:44:14.343Z,1026.00
2019-03-29T03:45:14.369Z,1026.00
2019-03-29T03:46:14.390Z,1025.95
2019-03-29T03:47:14.412Z,1025.96
2019-03-29T03:48:14.436Z,1025.91
2019-03-29T03:49:14.470Z,1025.91
2019-03-29T03:50:14.485Z,1025.93
2019-03-29T03:51:14.519Z,1025.95
2019-03-29T03:52:14.535Z,1025.90
2019-03-29T03:53:14.560Z,1025.89
2019-03-29T03:54:14.584Z,1025.92
2019-03-29T03:55:14.615Z,1025.90
2019-03-29T03:56:14.637Z,1025.91
2019-03-29T03:57:14.673Z,1025.86
2019-03-29T03:58:14.683Z,1025.92
2019-03-29T03:59:14.709Z,1025.89
2019-03-29T04:00:14.734Z,1025.95
2019-03-29T04:01:14.774Z,1025.94
2019-03-29T04:02:14.781Z,1025.97
2019-03-29T04:03:14.809Z,1025.91
2019-03-29T04:04:14.833Z,1025.92
2019-03-29T04:05:14.863Z,1025.92
2019-03-29T04:06:14.880Z,1025.89
2019-03-29T04:07:14.909Z,1025.88
2019-03-29T04:08:14.938Z,1025.91
2019-03-29T04:09:14.963Z,1025.92
2019-03-29T04:10:14.983Z,1025.92
2019-03-29T04:11:15.003Z,1025.88
2019-03-29T04:12:15.036Z,1025.89
2019-03-29T04:13:15.068Z,1025.88
2019-03-29T04:14:15.076Z,1025.90
2019-03-29T04:15:15.108Z,1025.89
2019-03-29T04:16:15.126Z,1025.87
2019-03-29T04:17:15.151Z,1025.89
2019-03-29T04:18:16.068Z,1025.88
2019-03-29T04:19:15.220Z,1025.85
2019-03-29T04:20:15.226Z,1025.83
2019-03-29T04:21:15.250Z,1025.83
2019-03-29T04:22:15.272Z,1025.82
2019-03-29T04:23:15.299Z,1025.80
2019-03-29T04:24:15.330Z,1025.85
2019-03-29T04:25:15.346Z,1025.85
2019-03-29T04:26:15.371Z,1025.88
2019-03-29T04:27:15.401Z,1025.83
2019-03-29T04:28:15.420Z,1025.87
2019-03-29T04:29:15.447Z,1025.89
2019-03-29T04:30:15.473Z,1025.87
2019-03-29T04:31:15.512Z,1025.82
2019-03-29T04:32:15.529Z,1025.84
2019-03-29T04:33:15.548Z,1025.87
2019-03-29T04:34:15.570Z,1025.87
2019-03-29T04:35:15.594Z,1025.87
2019-03-29T04:36:15.616Z,1025.83
2019-03-29T04:37:15.643Z,1025.87
2019-03-29T04:38:15.668Z,1025.83
2019-03-29T04:39:15.693Z,1025.85
2019-03-29T04:40:15.716Z,1025.88
2019-03-29T04:41:15.741Z,1025.85
2019-03-29T04:42:15.767Z,1025.85
2019-03-29T04:43:15.791Z,1025.84
2019-03-29T04:44:15.816Z,1025.89
2019-03-29T04:45:15.840Z,1025.90
2019-03-29T04:46:15.864Z,1025.89
2019-03-29T04:47:15.892Z,1025.87
2019-03-29T04:48:15.911Z,1025.86
2019-03-29T04:49:15.936Z,1025.83
2019-03-29T04:50:15.960Z,1025.86
2019-03-29T04:51:15.984Z,1025.89
2019-03-29T04:52:16.009Z,1025.85
2019-03-29T04:53:16.037Z,1025.88
2019-03-29T04:54:16.069Z,1025.90
2019-03-29T04:55:16.088Z,1025.88
2019-03-29T04:56:16.109Z,1025.84
2019-03-29T04:57:16.131Z,1025.88
2019-03-29T04:58:16.164Z,1025.85
2019-03-29T04:59:16.186Z,1025.89
2019-03-29T05:00:16.205Z,1025.89
2019-03-29T05:01:17.453Z,1025.89
2019-03-29T05:02:16.260Z,1025.86
2019-03-29T05:03:16.278Z,1025.88
2019-03-29T05:04:16.305Z,1025.87
2019-03-29T05:05:16.338Z,1025.88
2019-03-29T05:06:16.355Z,1025.88
2019-03-29T05:07:16.375Z,1025.82
2019-03-29T05:08:16.400Z,1025.85
2019-03-29T05:09:16.427Z,1025.85
2019-03-29T05:10:21.635Z,1025.82
2019-03-29T05:11:16.479Z,1025.82
2019-03-29T05:12:16.504Z,1025.81
2019-03-29T05:13:16.531Z,1025.80
2019-03-29T05:14:16.556Z,1025.82
2019-03-29T05:15:16.573Z,1025.82
2019-03-29T05:16:16.594Z,1025.79
2019-03-29T05:17:16.623Z,1025.76
2019-03-29T05:18:16.655Z,1025.81
2019-03-29T05:19:16.668Z,1025.82
2019-03-29T05:20:16.693Z,1025.80
2019-03-29T05:21:16.720Z,1025.84
2019-03-29T05:22:16.743Z,1025.81
2019-03-29T05:23:16.768Z,1025.83
2019-03-29T05:24:16.791Z,1025.89
2019-03-29T05:25:16.814Z,1025.81
2019-03-29T05:26:16.839Z,1025.81
2019-03-29T05:27:16.863Z,1025.80
2019-03-29T05:28:16.890Z,1025.80
2019-03-29T05:29:16.916Z,1025.75
2019-03-29T05:30:16.939Z,1025.75
2019-03-29T05:31:16.963Z,1025.77
2019-03-29T05:32:16.987Z,1025.78
2019-03-29T05:33:17.012Z,1025.75
2019-03-29T05:34:17.042Z,1025.73
2019-03-29T05:35:17.060Z,1025.78
2019-03-29T05:36:17.087Z,1025.76
2019-03-29T05:37:17.112Z,1025.77
2019-03-29T05:38:17.135Z,1025.69
2019-03-29T05:39:17.159Z,1025.79
2019-03-29T05:40:17.183Z,1025.69
2019-03-29T05:41:17.207Z,1025.72
2019-03-29T05:42:17.226Z,1025.70
2019-03-29T05:43:17.253Z,1025.70
2019-03-29T05:44:17.282Z,1025.71
2019-03-29T05:45:17.305Z,1025.69
2019-03-29T05:46:17.327Z,1025.68
2019-03-29T05:47:17.351Z,1025.73
2019-03-29T05:48:17.383Z,1025.71
2019-03-29T05:49:17.398Z,1025.74
2019-03-29T05:50:17.426Z,1025.76
2019-03-29T05:51:17.447Z,1025.77
2019-03-29T05:52:17.477Z,1025.74
2019-03-29T05:53:17.496Z,1025.74
2019-03-29T05:54:17.521Z,1025.75
2019-03-29T05:55:17.545Z,1025.74
2019-03-29T05:56:17.570Z,1025.77
2019-03-29T05:57:17.595Z,1025.75
2019-03-29T05:58:17.616Z,1025.74
2019-03-29T05:59:17.642Z,1025.74
2019-03-29T06:00:17.666Z,1025.76
2019-03-29T06:01:17.690Z,1025.74
2019-03-29T06:02:17.714Z,1025.79
2019-03-29T06:03:17.736Z,1025.70
2019-03-29T06:04:17.766Z,1025.73
2019-03-29T06:05:17.788Z,1025.76
2019-03-29T06:06:17.809Z,1025.67
2019-03-29T06:07:17.836Z,1025.72
2019-03-29T06:08:17.867Z,1025.70
2019-03-29T06:09:17.893Z,1025.73
2019-03-29T06:10:17.913Z,1025.71
2019-03-29T06:11:17.933Z,1025.72
2019-03-29T06:12:17.958Z,1025.73
2019-03-29T06:13:17.981Z,1025.77
2019-03-29T06:14:18.004Z,1025.73
2019-03-29T06:15:18.031Z,1025.74
2019-03-29T06:16:18.053Z,1025.78
2019-03-29T06:17:18.079Z,1025.71
2019-03-29T06:18:18.115Z,1025.75
2019-03-29T06:19:18.126Z,1025.77
2019-03-29T06:20:18.151Z,1025.79
2019-03-29T06:21:18.181Z,1025.78
2019-03-29T06:22:18.201Z,1025.84
2019-03-29T06:23:18.223Z,1025.82
2019-03-29T06:24:18.261Z,1025.82
2019-03-29T06:25:18.274Z,1026.99
2019-03-29T06:26:18.299Z,1030.13
2019-03-29T06:27:18.325Z,1031.13
2019-03-29T06:28:18.347Z,1031.84
2019-03-29T06:29:18.378Z,1031.06
2019-03-29T06:30:18.401Z,1030.05
2019-03-29T06:31:18.420Z,1030.05
2019-03-29T06:32:18.444Z,1029.58
2019-03-29T06:33:18.470Z,1028.96
2019-03-29T06:34:18.503Z,1028.51
2019-03-29T06:35:18.522Z,1028.35
2019-03-29T06:36:18.547Z,1028.34
2019-03-29T06:37:18.571Z,1028.20
2019-03-29T06:38:18.595Z,1027.94
2019-03-29T06:39:21.268Z,1027.72
2019-03-29T06:40:18.648Z,1027.61
2019-03-29T06:41:18.674Z,1027.58
2019-03-29T06:42:18.701Z,1027.48
2019-03-29T06:43:18.726Z,1027.27
2019-03-29T06:44:18.758Z,1026.93
2019-03-29T06:45:18.782Z,1026.96
2019-03-29T06:46:18.815Z,1027.02
2019-03-29T06:47:18.835Z,1027.06
2019-03-29T06:48:18.863Z,1026.90
2019-03-29T06:49:18.890Z,1026.62
2019-03-29T06:50:18.915Z,1026.70
2019-03-29T06:51:18.944Z,1026.69
2019-03-29T06:52:18.972Z,1026.66
2019-03-29T06:53:18.998Z,1026.62
2019-03-29T06:54:19.033Z,1026.72
2019-03-29T06:55:19.056Z,1026.49
2019-03-29T06:56:19.084Z,1026.38
2019-03-29T06:57:19.112Z,1026.28
2019-03-29T06:58:19.146Z,1026.44
2019-03-29T06:59:19.249Z,1026.51
2019-03-29T07:00:19.197Z,1026.44
2019-03-29T07:01:19.226Z,1026.39
2019-03-29T07:02:19.252Z,1026.36
2019-03-29T07:03:19.289Z,1026.38
2019-03-29T07:04:19.313Z,1026.37
2019-03-29T07:05:19.341Z,1026.26
2019-03-29T07:06:19.367Z,1026.32
2019-03-29T07:07:19.396Z,1026.35
2019-03-29T07:08:19.426Z,1026.26
2019-03-29T07:09:19.457Z,1026.24
2019-03-29T07:10:19.486Z,1026.22
2019-03-29T07:11:19.514Z,1026.33
2019-03-29T07:12:19.552Z,1026.44
2019-03-29T07:13:19.577Z,1026.37
2019-03-29T07:14:19.603Z,1026.33
2019-03-29T07:15:20.856Z,1026.33
2019-03-29T07:16:19.661Z,1026.37
2019-03-29T07:18:15.498Z,1026.44
2019-03-29T07:19:12.295Z,1026.37
2019-03-29T07:20:12.325Z,1026.46
2019-03-29T07:21:21.555Z,1026.51
2019-03-29T07:22:12.385Z,1026.40
2019-03-29T07:23:15.643Z,1026.18
2019-03-29T07:24:12.440Z,1025.87
2019-03-29T07:25:12.472Z,1025.46
2019-03-29T07:26:12.500Z,1025.36
2019-03-29T07:27:12.540Z,1025.38
2019-03-29T07:28:12.566Z,1025.37
2019-03-29T07:29:12.594Z,1025.29
2019-03-29T07:30:12.620Z,1025.39
2019-03-29T07:31:12.650Z,1025.35
2019-03-29T07:32:12.689Z,1025.51
2019-03-29T07:33:12.711Z,1025.61
2019-03-29T07:34:12.744Z,1025.76
2019-03-29T07:35:12.774Z,1025.97
2019-03-29T07:36:12.799Z,1026.02
2019-03-29T07:37:12.833Z,1025.96
2019-03-29T07:38:12.866Z,1025.99
2019-03-29T07:39:12.890Z,1026.03
2019-03-29T07:40:12.924Z,1026.02
2019-03-29T07:41:12.946Z,1026.02
2019-03-29T07:42:12.976Z,1026.10
2019-03-29T07:43:13.005Z,1026.07
2019-03-29T07:44:13.036Z,1025.99
2019-03-29T07:45:13.066Z,1026.03
2019-03-29T07:46:13.096Z,1026.04
2019-03-29T07:47:13.125Z,1026.04
2019-03-29T07:48:13.156Z,1026.02
2019-03-29T07:49:13.185Z,1026.03
2019-03-29T07:50:13.212Z,1026.03
2019-03-29T07:51:13.243Z,1026.03
2019-03-29T07:52:16.704Z,1026.02
2019-03-29T07:53:13.304Z,1026.02
2019-03-29T07:54:13.335Z,1026.05
2019-03-29T07:55:13.363Z,1026.06
2019-03-29T07:56:13.394Z,1026.03
2019-03-29T07:57:13.427Z,1026.06
2019-03-29T07:58:13.458Z,1026.02
2019-03-29T07:59:13.487Z,1026.01
2019-03-29T08:00:13.521Z,1026.02
2019-03-29T08:01:13.550Z,1026.05
2019-03-29T08:02:13.584Z,1026.06
2019-03-29T08:03:56.167Z,1026.01
2019-03-29T08:04:56.197Z,1026.04
2019-03-29T08:05:56.229Z,1026.01
2019-03-29T08:06:56.263Z,1026.08
2019-03-29T08:07:56.299Z,1026.19
2019-03-29T08:08:56.329Z,1026.29
2019-03-29T08:09:56.360Z,1026.43
2019-03-29T08:10:56.396Z,1026.49
2019-03-29T08:11:56.428Z,1026.47
2019-03-29T08:12:56.460Z,1026.53
2019-03-29T08:13:56.491Z,1026.56
2019-03-29T08:14:56.526Z,1026.54
2019-03-29T08:15:56.638Z,1026.56
2019-03-29T08:16:56.591Z,1026.59
2019-03-29T08:18:39.185Z,1026.55
2019-03-29T08:19:39.217Z,1026.55
2019-03-29T08:20:43.938Z,1026.53
2019-03-29T08:21:39.282Z,1026.50
2019-03-29T08:22:39.316Z,1026.56
2019-03-29T08:23:39.350Z,1026.56
2019-03-29T08:24:39.383Z,1026.56
2019-03-29T08:25:39.418Z,1026.57
2019-03-29T08:26:39.451Z,1026.57
2019-03-29T08:27:39.486Z,1026.48
2019-03-29T08:28:39.518Z,1026.50
2019-03-29T08:29:39.555Z,1026.49
2019-03-29T08:30:39.586Z,1026.53
2019-03-29T08:31:39.623Z,1026.49
2019-03-29T08:32:39.661Z,1026.48
2019-03-29T08:33:39.689Z,1026.44
2019-03-29T08:34:39.727Z,1026.50
2019-03-29T08:35:39.760Z,1026.48
2019-03-29T08:36:39.799Z,1026.48
2019-03-29T08:37:39.834Z,1026.53
2019-03-29T08:38:39.872Z,1026.53
2019-03-29T08:39:41.316Z,1026.54
2019-03-29T08:40:39.936Z,1026.54
2019-03-29T08:41:39.969Z,1026.55
2019-03-29T08:42:44.045Z,1026.57
2019-03-29T08:43:40.049Z,1026.58
2019-03-29T08:44:40.075Z,1026.52
2019-03-29T08:45:40.112Z,1026.58
2019-03-29T08:46:40.146Z,1026.52
2019-03-29T08:47:40.182Z,1026.51
2019-03-29T08:48:40.220Z,1026.58
2019-03-29T08:49:40.254Z,1026.60
2019-03-29T08:50:40.287Z,1026.61
2019-03-29T08:51:41.618Z,1026.60
2019-03-29T08:52:42.987Z,1026.62
2019-03-29T08:53:40.400Z,1026.62
2019-03-29T08:54:40.429Z,1026.66
2019-03-29T08:55:46.182Z,1026.67
2019-03-29T08:56:40.501Z,1026.70
2019-03-29T08:57:40.538Z,1026.68
2019-03-29T09:01:06.838Z,1026.60
2019-03-29T09:02:06.872Z,1026.57
2019-03-29T09:03:06.911Z,1026.58
2019-03-29T09:04:06.958Z,1026.58
2019-03-29T09:05:06.983Z,1026.60
2019-03-29T09:06:07.020Z,1026.59
2019-03-29T09:07:07.054Z,1026.63
2019-03-29T09:08:07.092Z,1026.59
2019-03-29T09:09:07.129Z,1026.59
2019-03-29T09:10:07.166Z,1026.58
2019-03-29T09:11:07.801Z,1026.62
2019-03-29T09:12:14.208Z,1026.67
2019-03-29T09:13:07.273Z,1026.65
2019-03-29T09:14:07.311Z,1026.64
2019-03-29T09:15:07.355Z,1026.69
2019-03-29T09:16:07.387Z,1026.65
2019-03-29T09:17:07.423Z,1026.61
2019-03-29T09:18:07.458Z,1026.59
2019-03-29T09:19:07.500Z,1026.61
2019-03-29T09:20:10.404Z,1026.62
2019-03-29T09:21:07.574Z,1026.62
2019-03-29T09:22:07.606Z,1026.63
2019-03-29T09:23:10.418Z,1026.58
2019-03-29T09:24:21.289Z,1026.54
2019-03-29T09:25:07.716Z,1026.56
2019-03-29T09:26:07.750Z,1026.57
2019-03-29T09:27:07.790Z,1026.49
2019-03-29T09:28:07.825Z,1026.46
2019-03-29T09:29:07.862Z,1026.42
2019-03-29T09:30:07.899Z,1026.37
2019-03-29T09:31:07.937Z,1026.38
2019-03-29T09:32:07.972Z,1026.36
2019-03-29T09:33:08.012Z,1026.37
2019-03-29T09:34:08.045Z,1026.33
2019-03-29T09:35:08.086Z,1026.33
2019-03-29T09:36:08.162Z,1026.27
2019-03-29T09:37:08.156Z,1026.25
2019-03-29T09:38:08.193Z,1026.25
2019-03-29T09:39:08.231Z,1026.27
2019-03-29T09:40:08.272Z,1026.23
2019-03-29T09:41:08.306Z,1026.24
2019-03-29T09:42:09.823Z,1026.23
2019-03-29T09:43:08.735Z,1026.21
2019-03-29T09:44:08.415Z,1026.19
2019-03-29T09:45:08.466Z,1026.19
2019-03-29T09:46:08.491Z,1026.15
2019-03-29T09:47:08.533Z,1026.16
2019-03-29T09:48:08.573Z,1026.10
2019-03-29T09:49:08.637Z,1026.09
2019-03-29T09:50:10.575Z,1026.07
2019-03-29T09:51:08.677Z,1026.07
2019-03-29T09:52:08.722Z,1026.05
2019-03-29T09:53:08.757Z,1026.02
2019-03-29T09:54:08.791Z,1026.05
2019-03-29T09:55:08.829Z,1026.04
2019-03-29T09:56:08.865Z,1026.05
2019-03-29T09:57:10.149Z,1026.04
2019-03-29T09:58:08.939Z,1026.05
2019-03-29T09:59:08.978Z,1026.01
2019-03-29T10:00:19.227Z,1026.02
2019-03-29T10:01:09.152Z,1025.97
2019-03-29T10:02:09.090Z,1025.98
2019-03-29T10:03:09.128Z,1025.92
2019-03-29T10:04:09.166Z,1025.92
2019-03-29T10:05:09.200Z,1025.92
2019-03-29T10:06:09.244Z,1025.91
2019-03-29T10:07:09.276Z,1025.90
2019-03-29T10:08:09.314Z,1025.87
2019-03-29T10:09:09.354Z,1025.86
2019-03-29T10:10:09.391Z,1025.83
2019-03-29T10:11:09.426Z,1025.84
2019-03-29T10:12:09.464Z,1025.85
2019-03-29T10:13:09.502Z,1025.82
2019-03-29T10:14:12.161Z,1025.81
2019-03-29T10:15:09.579Z,1025.76
2019-03-29T10:16:09.614Z,1025.79
2019-03-29T10:17:09.652Z,1025.74
2019-03-29T10:18:09.692Z,1025.77
2019-03-29T10:19:09.727Z,1025.75
2019-03-29T10:20:09.761Z,1025.76
2019-03-29T10:21:09.801Z,1025.76
2019-03-29T10:22:09.836Z,1025.72
2019-03-29T10:23:09.883Z,1025.76
2019-03-29T10:24:09.915Z,1025.70
2019-03-29T10:25:19.184Z,1025.72
2019-03-29T10:26:09.991Z,1025.66
2019-03-29T10:27:13.467Z,1025.63
2019-03-29T10:28:10.062Z,1025.64
2019-03-29T10:29:10.104Z,1025.63
2019-03-29T10:30:10.138Z,1025.67
2019-03-29T10:31:10.283Z,1025.63
2019-03-29T10:32:12.840Z,1025.59
2019-03-29T10:33:10.252Z,1025.56
2019-03-29T10:34:10.292Z,1025.56
2019-03-29T10:35:10.324Z,1025.57
2019-03-29T10:36:10.367Z,1025.55
2019-03-29T10:37:10.394Z,1025.52
2019-03-29T10:38:10.432Z,1025.46
2019-03-29T10:39:10.485Z,1025.50
2019-03-29T10:40:10.509Z,1025.48
2019-03-29T10:41:10.547Z,1025.48
2019-03-29T10:42:10.583Z,1025.42
2019-03-29T10:43:10.620Z,1025.44
2019-03-29T10:44:10.659Z,1025.41
2019-03-29T10:45:10.695Z,1025.42
2019-03-29T10:46:10.741Z,1025.39
2019-03-29T10:47:10.778Z,1025.50
2019-03-29T10:48:10.817Z,1025.50
2019-03-29T10:49:10.848Z,1025.51
2019-03-29T10:50:10.887Z,1025.56
2019-03-29T10:51:10.924Z,1025.62
2019-03-29T10:52:10.959Z,1025.60
2019-03-29T10:53:11.000Z,1025.54
2019-03-29T10:54:11.042Z,1025.55
2019-03-29T10:55:11.089Z,1025.36
2019-03-29T10:56:11.113Z,1025.39
2019-03-29T10:57:11.152Z,1025.44
2019-03-29T10:58:11.194Z,1025.43
2019-03-29T10:59:11.233Z,1025.37
2019-03-29T11:00:11.272Z,1025.32
2019-03-29T11:01:11.305Z,1025.37
2019-03-29T11:02:11.345Z,1025.36
2019-03-29T11:03:11.379Z,1025.34
2019-03-29T11:04:11.418Z,1025.40
2019-03-29T11:05:11.454Z,1025.37
2019-03-29T11:06:11.494Z,1025.38
2019-03-29T11:07:11.531Z,1025.38
2019-03-29T11:08:12.388Z,1025.36
2019-03-29T11:09:11.607Z,1025.40
2019-03-29T11:10:11.650Z,1025.35
2019-03-29T11:11:11.686Z,1025.39
2019-03-29T11:12:11.730Z,1025.39
2019-03-29T11:13:13.817Z,1025.42
2019-03-29T11:14:11.801Z,1025.51
2019-03-29T11:15:11.834Z,1025.51
2019-03-29T11:16:11.873Z,1025.53
2019-03-29T11:17:11.916Z,1025.59
2019-03-29T11:18:11.952Z,1025.64
2019-03-29T11:19:11.988Z,1025.78
2019-03-29T11:20:12.025Z,1025.92
2019-03-29T11:21:12.064Z,1026.10
2019-03-29T11:22:12.102Z,1026.32
2019-03-29T11:23:12.139Z,1026.50
2019-03-29T11:24:12.174Z,1026.79
2019-03-29T11:25:12.213Z,1026.96
2019-03-29T11:26:14.874Z,1027.13
2019-03-29T11:27:12.290Z,1027.21
2019-03-29T11:28:12.328Z,1027.21
2019-03-29T11:29:12.366Z,1027.26
2019-03-29T11:30:12.400Z,1027.30
2019-03-29T11:31:12.438Z,1027.19
2019-03-29T11:32:12.476Z,1027.19
2019-03-29T11:33:12.516Z,1027.15
2019-03-29T11:34:12.551Z,1027.07
2019-03-29T11:35:12.591Z,1027.01
2019-03-29T11:36:12.641Z,1027.05
2019-03-29T11:37:12.666Z,1026.86
2019-03-29T11:38:12.703Z,1026.79
2019-03-29T11:39:12.740Z,1026.87
2019-03-29T11:40:12.785Z,1026.73
2019-03-29T11:41:12.814Z,1026.72
2019-03-29T11:42:12.859Z,1026.65
2019-03-29T11:43:26.016Z,1026.39
2019-03-29T11:44:12.927Z,1026.23
2019-03-29T11:45:12.965Z,1026.13
2019-03-29T11:46:13.003Z,1025.97
2019-03-29T11:47:13.043Z,1025.82
2019-03-29T11:48:13.082Z,1025.73
2019-03-29T11:49:13.115Z,1025.56
2019-03-29T11:50:13.154Z,1025.46
2019-03-29T11:51:19.113Z,1025.39
2019-03-29T11:52:13.231Z,1025.30
2019-03-29T11:53:13.273Z,1025.26
2019-03-29T11:54:13.307Z,1025.23
2019-03-29T11:55:13.344Z,1025.24
2019-03-29T11:56:13.383Z,1025.19
2019-03-29T11:57:13.421Z,1025.19
2019-03-29T11:58:13.456Z,1025.19
2019-03-29T11:59:13.498Z,1025.21
2019-03-29T12:00:13.533Z,1025.13
2019-03-29T12:01:13.571Z,1025.15
2019-03-29T12:02:13.609Z,1025.23
2019-03-29T12:03:13.647Z,1025.24
2019-03-29T12:04:13.686Z,1025.27
2019-03-29T12:05:13.726Z,1025.31
2019-03-29T12:06:13.769Z,1025.35
2019-03-29T12:07:13.819Z,1025.31
2019-03-29T12:08:17.469Z,1025.30
2019-03-29T12:09:13.873Z,1025.27
2019-03-29T12:10:13.919Z,1025.22